Time;durP1;ratioP1;P1;durP2;ratioP2;P2;SDS_P1;SDS_P2;PMS_P1;PMS_P2;Temp;Humidity;BMP_temperature;BMP_pressure;BME280_temperature;BME280_humidity;BME280_pressure;Samples;Min_cycle;Max_cycle;Signal;HPM_P1;HPM_P2
2023/03/19 00:00:16;;;;;;;18.42;16.42;;;9.40;99.90;;;;;;5048284;28;20222;-77
2023/03/19 00:02:48;;;;;;;17.58;15.60;;;9.30;99.90;;;;;;5030677;28;20192;-77
2023/03/19 00:05:15;;;;;;;18.85;15.75;;;9.30;99.90;;;;;;5044472;28;20211;-77
2023/03/19 00:07:42;;;;;;;22.67;18.48;;;9.20;99.90;;;;;;5045052;28;20199;-77
2023/03/19 00:10:10;;;;;;;23.80;19.13;;;9.20;99.90;;;;;;5045661;28;20227;-77
2023/03/19 00:12:39;;;;;;;20.42;17.00;;;9.30;99.90;;;;;;5049576;28;20215;-77
2023/03/19 00:15:12;;;;;;;21.02;18.02;;;9.20;99.90;;;;;;5049975;28;20286;-77
2023/03/19 00:17:40;;;;;;;20.10;16.42;;;9.20;99.90;;;;;;5045673;28;20235;-77
2023/03/19 00:20:09;;;;;;;19.42;16.73;;;9.10;99.90;;;;;;5063953;28;20762;-77
2023/03/19 00:22:37;;;;;;;18.90;16.27;;;9.00;99.90;;;;;;5043752;28;20214;-77
2023/03/19 00:25:05;;;;;;;18.58;16.38;;;9.00;99.90;;;;;;5037061;28;20235;-76
2023/03/19 00:27:32;;;;;;;20.73;17.58;;;9.00;99.90;;;;;;5036991;28;20200;-76
2023/03/19 00:36:19;;;;;;;18.80;15.23;;;8.90;99.90;;;;;;5044836;28;20684;-75
2023/03/19 00:38:47;;;;;;;19.08;15.82;;;8.90;99.90;;;;;;5043458;28;20657;-74
2023/03/19 00:41:16;;;;;;;19.63;16.13;;;8.80;99.90;;;;;;5038351;28;20215;-76
2023/03/19 00:43:43;;;;;;;16.50;14.65;;;8.90;99.90;;;;;;5040139;28;20209;-73
2023/03/19 00:46:10;;;;;;;18.00;16.05;;;8.90;99.90;;;;;;5040837;28;21034;-77
2023/03/19 00:48:37;;;;;;;19.38;16.48;;;8.80;99.90;;;;;;5041199;28;20283;-75
2023/03/19 00:51:04;;;;;;;18.95;15.75;;;8.70;99.90;;;;;;5043143;28;20771;-76
2023/03/19 00:53:32;;;;;;;22.58;18.08;;;8.60;99.90;;;;;;5043521;28;20203;-75
2023/03/19 00:56:00;;;;;;;25.92;20.95;;;8.50;99.90;;;;;;5040370;28;20623;-75
2023/03/19 00:58:27;;;;;;;22.80;19.05;;;8.50;99.90;;;;;;5042781;28;20306;-76
2023/03/19 01:00:54;;;;;;;24.70;19.15;;;8.60;99.90;;;;;;5039597;28;20646;-76
2023/03/19 01:03:21;;;;;;;19.38;17.15;;;8.60;99.90;;;;;;5041220;28;20198;-75
2023/03/19 01:05:48;;;;;;;19.67;17.27;;;8.60;99.90;;;;;;5040552;28;20203;-75
2023/03/19 01:08:15;;;;;;;19.70;16.35;;;8.60;99.90;;;;;;5040308;28;20371;-74
2023/03/19 01:10:44;;;;;;;22.98;18.60;;;8.60;99.90;;;;;;5040855;28;20211;-73
2023/03/19 01:13:11;;;;;;;18.88;16.25;;;8.60;99.90;;;;;;5039934;28;20199;-75
2023/03/19 01:15:39;;;;;;;20.80;17.38;;;8.60;99.90;;;;;;5042179;28;20195;-76
2023/03/19 01:18:06;;;;;;;22.15;17.52;;;8.60;99.90;;;;;;5042906;28;20242;-75
2023/03/19 01:20:34;;;;;;;18.10;16.17;;;8.60;99.90;;;;;;5036914;28;20948;-75
2023/03/19 01:23:01;;;;;;;20.33;16.73;;;8.50;99.90;;;;;;5040471;28;20207;-75
2023/03/19 01:25:28;;;;;;;19.25;16.35;;;8.40;99.90;;;;;;5041734;28;20207;-75
2023/03/19 01:27:56;;;;;;;21.73;17.85;;;8.40;99.90;;;;;;5038210;28;20741;-75
2023/03/19 01:30:23;;;;;;;19.35;16.67;;;8.30;99.90;;;;;;5038602;28;20239;-74
2023/03/19 01:32:50;;;;;;;19.75;17.25;;;8.20;99.90;;;;;;5038581;28;20223;-75
2023/03/19 01:35:18;;;;;;;19.17;16.27;;;8.10;99.90;;;;;;5038006;28;20245;-74
2023/03/19 01:37:45;;;;;;;21.27;17.20;;;8.00;99.90;;;;;;5039599;28;20306;-74
2023/03/19 01:40:14;;;;;;;22.65;19.92;;;8.00;99.90;;;;;;5039608;28;20225;-74
2023/03/19 01:42:56;;;;;;;19.77;16.92;;;8.10;99.90;;;;;;5039205;28;20196;-78
2023/03/19 01:45:45;;;;;;;19.50;17.40;;;8.00;99.90;;;;;;5039885;28;20202;-76
2023/03/19 01:48:28;;;;;;;21.92;18.13;;;8.10;99.90;;;;;;5036953;28;20214;-75
2023/03/19 01:50:56;;;;;;;20.10;16.80;;;8.00;99.90;;;;;;5037740;28;20218;-74
2023/03/19 01:53:27;;;;;;;20.30;16.88;;;7.90;99.90;;;;;;5033241;28;20735;-78
2023/03/19 01:55:58;;;;;;;18.88;16.42;;;7.90;99.90;;;;;;5035065;28;20230;-76
2023/03/19 01:58:27;;;;;;;17.90;15.88;;;7.90;99.90;;;;;;5036823;28;20810;-75
2023/03/19 02:00:56;;;;;;;19.48;16.33;;;7.90;99.90;;;;;;5040402;28;20230;-77
2023/03/19 02:03:23;;;;;;;18.10;14.43;;;7.90;99.90;;;;;;5041561;28;20612;-78
2023/03/19 02:05:52;;;;;;;17.80;15.50;;;7.90;99.90;;;;;;5036102;28;20222;-75
2023/03/19 02:08:21;;;;;;;18.38;16.48;;;7.90;99.90;;;;;;5040354;28;20235;-79
2023/03/19 02:10:49;;;;;;;21.70;18.23;;;7.90;99.90;;;;;;5034150;28;20194;-77
2023/03/19 02:13:16;;;;;;;23.17;18.75;;;7.90;99.90;;;;;;5035989;28;20234;-77
2023/03/19 02:15:45;;;;;;;19.02;16.83;;;7.80;99.90;;;;;;5038212;28;20196;-73
2023/03/19 02:18:13;;;;;;;20.10;17.58;;;7.80;99.90;;;;;;5037631;28;20752;-74
2023/03/19 02:20:46;;;;;;;18.70;16.63;;;7.70;99.90;;;;;;5035459;28;20693;-74
2023/03/19 02:23:22;;;;;;;18.65;16.65;;;7.60;99.90;;;;;;5036097;28;20264;-76
2023/03/19 02:26:12;;;;;;;19.70;16.25;;;7.60;99.90;;;;;;5040276;28;20210;-74
2023/03/19 02:28:42;;;;;;;17.73;15.65;;;7.50;99.90;;;;;;5036403;28;20345;-74
2023/03/19 02:31:10;;;;;;;18.40;16.00;;;7.40;99.90;;;;;;5042205;28;20752;-74
2023/03/19 02:33:37;;;;;;;17.60;15.38;;;7.30;99.90;;;;;;5040348;28;20294;-77
2023/03/19 02:36:06;;;;;;;17.02;15.23;;;7.30;99.90;;;;;;5035088;28;20226;-77
2023/03/19 02:38:35;;;;;;;17.08;14.98;;;7.20;99.90;;;;;;5039671;28;20296;-74
2023/03/19 02:41:05;;;;;;;21.42;16.67;;;7.30;99.90;;;;;;5034989;28;20670;-75
2023/03/19 02:43:35;;;;;;;16.85;14.98;;;7.30;99.90;;;;;;5040500;28;20559;-73
2023/03/19 02:46:03;;;;;;;16.90;15.10;;;7.40;99.90;;;;;;5038440;28;20677;-74
2023/03/19 02:48:30;;;;;;;17.13;15.23;;;7.40;99.90;;;;;;5041738;28;20615;-77
2023/03/19 02:50:57;;;;;;;17.90;15.90;;;7.50;99.90;;;;;;5040014;28;20207;-77
2023/03/19 02:53:24;;;;;;;16.23;14.25;;;7.50;99.90;;;;;;5036337;28;20282;-75
2023/03/19 02:55:51;;;;;;;15.30;13.45;;;7.50;99.90;;;;;;5037208;28;20258;-76
2023/03/19 02:58:18;;;;;;;16.33;14.38;;;7.60;99.90;;;;;;5040261;28;20756;-76
2023/03/19 03:00:47;;;;;;;15.88;14.13;;;7.60;99.90;;;;;;5036842;28;20277;-74
2023/03/19 03:03:14;;;;;;;18.25;15.88;;;7.60;99.90;;;;;;5040471;28;20266;-74
2023/03/19 03:05:41;;;;;;;18.42;15.85;;;7.60;99.90;;;;;;5041479;28;20268;-75
2023/03/19 03:08:08;;;;;;;15.63;13.98;;;7.60;99.90;;;;;;5039170;28;20315;-75
2023/03/19 03:10:35;;;;;;;17.52;15.63;;;7.60;99.90;;;;;;5040591;28;20238;-74
2023/03/19 03:13:02;;;;;;;15.88;14.15;;;7.60;99.90;;;;;;5040092;28;20314;-75
2023/03/19 03:15:29;;;;;;;17.20;15.27;;;7.60;99.90;;;;;;5042929;28;20284;-74
2023/03/19 03:17:57;;;;;;;17.77;15.18;;;7.60;99.90;;;;;;5039768;28;20254;-75
2023/03/19 03:20:24;;;;;;;18.15;15.55;;;7.60;99.90;;;;;;5040464;28;20290;-74
2023/03/19 03:22:52;;;;;;;17.10;14.90;;;7.60;99.90;;;;;;5039387;28;20281;-75
2023/03/19 03:25:19;;;;;;;18.35;15.55;;;7.60;99.90;;;;;;5042253;28;20194;-73
2023/03/19 03:27:46;;;;;;;16.42;14.73;;;7.50;99.90;;;;;;5038604;28;20226;-74
2023/03/19 03:30:15;;;;;;;16.77;13.63;;;7.50;99.90;;;;;;5034750;28;20303;-77
2023/03/19 03:32:42;;;;;;;15.98;14.13;;;7.50;99.90;;;;;;5038952;28;20746;-74
2023/03/19 03:35:11;;;;;;;18.67;15.30;;;7.50;99.90;;;;;;5034762;28;20726;-75
2023/03/19 03:37:38;;;;;;;17.20;14.95;;;7.50;99.90;;;;;;5039716;28;20276;-74
2023/03/19 03:40:07;;;;;;;16.80;15.07;;;7.50;99.90;;;;;;5035489;28;20264;-78
2023/03/19 03:42:36;;;;;;;16.73;14.45;;;7.50;99.90;;;;;;5040008;28;20194;-75
2023/03/19 03:45:03;;;;;;;18.90;16.27;;;7.50;99.90;;;;;;5034850;28;20214;-75
2023/03/19 03:47:31;;;;;;;17.77;15.07;;;7.50;99.90;;;;;;5039444;28;20713;-75
2023/03/19 03:49:58;;;;;;;18.15;16.17;;;7.50;99.90;;;;;;5037959;28;20268;-74
2023/03/19 03:52:30;;;;;;;14.70;13.13;;;7.50;99.90;;;;;;5039866;28;20762;-76
2023/03/19 03:54:57;;;;;;;17.70;15.15;;;7.50;99.90;;;;;;5031869;28;20289;-73
2023/03/19 03:57:24;;;;;;;18.55;15.93;;;7.50;99.90;;;;;;5038005;28;20302;-74
2023/03/19 03:59:51;;;;;;;18.85;15.73;;;7.50;99.90;;;;;;5041772;28;20230;-75
2023/03/19 04:02:18;;;;;;;19.25;16.23;;;7.50;99.90;;;;;;5038560;28;20195;-75
2023/03/19 04:04:46;;;;;;;17.23;15.38;;;7.50;99.90;;;;;;5037039;28;20902;-76
2023/03/19 04:07:13;;;;;;;16.73;14.93;;;7.40;99.90;;;;;;5038854;28;20213;-75
2023/03/19 04:09:42;;;;;;;21.13;17.80;;;7.50;99.90;;;;;;5041177;28;20709;-74
2023/03/19 04:12:10;;;;;;;20.10;17.30;;;7.40;99.90;;;;;;5037284;28;20288;-76
2023/03/19 04:14:36;;;;;;;18.35;15.77;;;7.30;99.90;;;;;;5042788;28;20205;-75
2023/03/19 04:17:03;;;;;;;19.80;15.38;;;7.30;99.90;;;;;;5040585;28;20249;-74
2023/03/19 04:19:31;;;;;;;18.10;16.20;;;7.30;99.90;;;;;;5036013;28;20286;-75
2023/03/19 04:21:58;;;;;;;18.13;15.60;;;7.30;99.90;;;;;;5038539;28;20226;-74
2023/03/19 04:24:25;;;;;;;17.08;15.27;;;7.30;99.90;;;;;;5038196;28;20302;-74
2023/03/19 04:26:54;;;;;;;18.13;15.45;;;7.20;99.90;;;;;;5039459;28;20202;-74
2023/03/19 04:29:21;;;;;;;18.00;15.90;;;7.30;99.90;;;;;;5037444;28;20245;-73
2023/03/19 04:31:48;;;;;;;16.92;15.10;;;7.20;99.90;;;;;;5040109;28;20254;-74
2023/03/19 04:34:16;;;;;;;17.92;16.10;;;7.20;99.90;;;;;;5040438;28;20266;-74
2023/03/19 04:36:43;;;;;;;17.05;15.25;;;7.20;99.90;;;;;;5036450;28;20210;-74
2023/03/19 04:39:10;;;;;;;19.45;16.73;;;7.20;99.90;;;;;;5039721;28;20234;-75
2023/03/19 04:41:37;;;;;;;18.05;15.90;;;7.10;99.90;;;;;;5032862;28;20254;-75
2023/03/19 04:44:06;;;;;;;17.85;15.95;;;7.10;99.90;;;;;;5038039;28;20203;-73
2023/03/19 04:46:33;;;;;;;19.02;17.02;;;7.10;99.90;;;;;;5038887;28;20203;-75
2023/03/19 04:49:00;;;;;;;18.77;15.70;;;7.10;99.90;;;;;;5041914;28;20309;-75
2023/03/19 04:51:27;;;;;;;22.65;17.77;;;7.00;99.90;;;;;;5038206;28;20204;-74
2023/03/19 04:53:54;;;;;;;16.90;14.73;;;7.00;99.90;;;;;;5035710;28;20215;-75
2023/03/19 04:56:21;;;;;;;21.25;16.27;;;7.00;99.90;;;;;;5044662;28;20572;-74
2023/03/19 04:58:48;;;;;;;20.45;16.40;;;7.00;99.90;;;;;;5043094;28;20288;-75
2023/03/19 05:01:17;;;;;;;17.10;15.30;;;6.90;99.90;;;;;;5041581;28;21349;-75
2023/03/19 05:03:44;;;;;;;17.73;15.48;;;7.00;99.90;;;;;;5043075;28;20837;-74
2023/03/19 05:06:11;;;;;;;17.95;15.02;;;6.90;99.90;;;;;;5035363;28;20209;-74
2023/03/19 05:08:38;;;;;;;19.70;17.27;;;7.00;99.90;;;;;;5045325;28;20309;-74
2023/03/19 05:11:06;;;;;;;17.98;16.08;;;6.90;99.90;;;;;;5053454;28;20267;-75
2023/03/19 05:13:33;;;;;;;16.30;14.60;;;6.80;99.90;;;;;;5047457;28;20214;-75
2023/03/19 05:16:00;;;;;;;19.30;17.23;;;6.80;99.90;;;;;;5050831;28;20864;-74
2023/03/19 05:18:28;;;;;;;18.90;16.58;;;6.80;99.90;;;;;;5040738;28;20261;-74
2023/03/19 05:20:56;;;;;;;16.77;14.98;;;6.80;99.90;;;;;;5037144;28;20199;-74
2023/03/19 05:23:23;;;;;;;16.80;14.98;;;6.80;99.90;;;;;;5036418;28;20199;-73
2023/03/19 05:25:49;;;;;;;16.17;14.52;;;6.80;99.90;;;;;;5037378;28;20227;-74
2023/03/19 05:28:17;;;;;;;16.85;15.13;;;6.90;99.90;;;;;;5036737;28;20313;-74
2023/03/19 05:30:44;;;;;;;20.17;15.52;;;6.90;99.90;;;;;;5035311;28;20207;-74
2023/03/19 05:33:11;;;;;;;17.10;15.27;;;6.90;99.90;;;;;;5037617;28;20225;-73
2023/03/19 05:35:40;;;;;;;19.65;15.50;;;6.90;99.90;;;;;;5041675;28;20290;-73
2023/03/19 05:38:07;;;;;;;18.13;15.02;;;6.90;99.90;;;;;;5036364;28;20219;-73
2023/03/19 05:40:34;;;;;;;17.65;15.82;;;6.80;99.90;;;;;;5040066;28;20198;-73
2023/03/19 05:43:01;;;;;;;19.27;16.25;;;6.80;99.90;;;;;;5038837;28;20817;-74
2023/03/19 05:45:28;;;;;;;17.58;15.68;;;6.90;99.90;;;;;;5036480;28;20203;-73
2023/03/19 05:47:55;;;;;;;17.77;15.85;;;6.80;99.90;;;;;;5038437;28;20223;-73
2023/03/19 05:50:22;;;;;;;20.05;17.30;;;6.90;99.90;;;;;;5037261;28;20369;-73
2023/03/19 05:52:51;;;;;;;19.98;17.30;;;6.90;99.90;;;;;;5034087;28;20305;-73
2023/03/19 05:55:18;;;;;;;16.02;14.30;;;6.90;99.90;;;;;;5037029;28;20200;-75
2023/03/19 05:57:45;;;;;;;17.67;15.77;;;6.90;99.90;;;;;;5036274;28;20243;-74
2023/03/19 06:00:13;;;;;;;18.17;16.20;;;6.90;99.90;;;;;;5039027;28;20203;-73
2023/03/19 06:02:41;;;;;;;17.38;15.40;;;6.90;99.90;;;;;;5038785;28;20202;-73
2023/03/19 06:05:10;;;;;;;18.15;16.15;;;7.00;99.90;;;;;;5039099;28;20203;-73
2023/03/19 06:07:37;;;;;;;17.08;15.27;;;7.00;99.90;;;;;;5042070;28;20213;-73
2023/03/19 06:10:07;;;;;;;17.08;15.07;;;7.00;99.90;;;;;;5038704;28;20231;-77
2023/03/19 06:12:33;;;;;;;17.38;15.45;;;7.00;99.90;;;;;;5049094;28;20268;-75
2023/03/19 06:15:00;;;;;;;17.15;15.27;;;7.10;99.90;;;;;;5040128;28;20210;-72
2023/03/19 06:17:27;;;;;;;21.75;17.23;;;7.10;99.90;;;;;;5037315;28;20869;-73
2023/03/19 06:19:54;;;;;;;17.67;15.85;;;7.10;99.90;;;;;;5034654;28;20237;-74
2023/03/19 06:22:21;;;;;;;17.80;15.90;;;7.10;99.90;;;;;;5036126;28;20234;-74
2023/03/19 06:24:48;;;;;;;18.63;16.15;;;7.20;99.90;;;;;;5037562;28;21073;-73
2023/03/19 06:27:17;;;;;;;16.92;15.15;;;7.30;99.90;;;;;;5034438;28;20253;-73
2023/03/19 06:29:43;;;;;;;17.75;15.27;;;7.50;99.90;;;;;;5037116;28;20207;-73
2023/03/19 06:32:11;;;;;;;17.35;15.35;;;7.80;99.90;;;;;;5033991;28;20279;-73
2023/03/19 06:34:38;;;;;;;21.20;18.48;;;8.10;99.90;;;;;;5036664;28;20199;-73
2023/03/19 06:37:06;;;;;;;23.00;19.02;;;8.40;99.90;;;;;;5037871;28;20214;-74
2023/03/19 06:39:33;;;;;;;22.02;18.70;;;8.60;99.90;;;;;;5034307;28;20261;-74
2023/03/19 06:42:00;;;;;;;21.73;18.48;;;8.90;99.90;;;;;;5034393;28;20860;-75
2023/03/19 06:44:29;;;;;;;20.15;17.95;;;9.20;99.90;;;;;;5034945;28;20545;-76
2023/03/19 06:46:56;;;;;;;21.20;18.98;;;9.40;99.90;;;;;;5037635;28;20293;-73
2023/03/19 06:49:23;;;;;;;23.95;18.85;;;9.50;99.90;;;;;;5035835;28;20638;-76
2023/03/19 06:51:50;;;;;;;20.58;16.98;;;9.70;99.90;;;;;;5038144;28;20209;-74
2023/03/19 06:54:17;;;;;;;22.42;20.02;;;9.80;99.90;;;;;;5036199;28;20215;-73
2023/03/19 06:56:44;;;;;;;21.15;18.75;;;10.00;99.90;;;;;;5035415;28;20731;-74
2023/03/19 06:59:12;;;;;;;20.83;18.63;;;10.00;99.90;;;;;;5037941;28;20268;-74
2023/03/19 07:01:40;;;;;;;21.02;18.63;;;10.10;99.90;;;;;;5036514;28;20261;-75
2023/03/19 07:04:08;;;;;;;21.58;18.52;;;10.00;99.90;;;;;;5034989;28;20198;-72
2023/03/19 07:06:35;;;;;;;22.65;19.50;;;10.10;99.90;;;;;;5036757;28;20754;-75
2023/03/19 07:09:03;;;;;;;22.30;18.70;;;10.00;99.90;;;;;;5041504;28;20255;-73
2023/03/19 07:11:30;;;;;;;20.42;18.27;;;10.00;99.90;;;;;;5045973;28;20221;-76
2023/03/19 07:13:56;;;;;;;21.42;19.13;;;9.80;99.90;;;;;;5044624;28;20676;-76
2023/03/19 07:16:23;;;;;;;20.30;18.17;;;9.60;99.90;;;;;;5040635;28;20241;-74
2023/03/19 07:18:52;;;;;;;19.95;17.63;;;9.40;99.90;;;;;;5035171;28;20226;-73
2023/03/19 07:21:19;;;;;;;19.92;17.92;;;9.40;99.90;;;;;;5038939;28;20290;-74
2023/03/19 07:23:46;;;;;;;21.42;19.02;;;9.30;99.90;;;;;;5038033;28;20207;-76
2023/03/19 07:26:13;;;;;;;22.30;19.65;;;9.30;99.90;;;;;;5042126;28;20627;-75
2023/03/19 07:28:40;;;;;;;21.77;18.70;;;9.40;99.90;;;;;;5037550;28;20444;-77
2023/03/19 07:31:07;;;;;;;20.80;18.67;;;9.30;99.90;;;;;;5038903;28;20778;-74
2023/03/19 07:33:34;;;;;;;22.80;18.83;;;9.20;99.90;;;;;;5038972;28;20223;-73
2023/03/19 07:36:02;;;;;;;21.60;19.30;;;9.10;99.90;;;;;;5039488;28;20222;-75
2023/03/19 07:38:29;;;;;;;22.23;19.83;;;9.00;99.90;;;;;;5041855;28;20271;-75
2023/03/19 07:40:56;;;;;;;21.00;18.80;;;9.00;99.90;;;;;;5039686;28;20603;-75
2023/03/19 07:43:23;;;;;;;20.80;17.95;;;9.00;99.90;;;;;;5036177;28;20222;-74
2023/03/19 07:45:50;;;;;;;20.55;18.25;;;8.90;99.90;;;;;;5038875;28;20290;-74
2023/03/19 07:48:17;;;;;;;19.83;17.70;;;9.00;99.90;;;;;;5040435;28;20317;-75
2023/03/19 07:50:45;;;;;;;20.00;17.85;;;9.10;99.90;;;;;;5039906;28;20199;-74
2023/03/19 07:53:13;;;;;;;20.00;17.65;;;9.30;99.90;;;;;;5040703;28;20223;-76
2023/03/19 07:55:40;;;;;;;20.35;18.00;;;9.50;99.90;;;;;;5039742;28;20291;-76
2023/03/19 07:58:07;;;;;;;22.85;19.90;;;9.80;99.90;;;;;;5045081;28;20280;-74
2023/03/19 08:00:34;;;;;;;21.13;18.80;;;10.20;99.90;;;;;;5041240;28;20199;-75
2023/03/19 08:03:01;;;;;;;21.20;18.85;;;10.50;99.90;;;;;;5040326;28;20204;-74
2023/03/19 08:05:28;;;;;;;25.92;20.58;;;10.90;99.90;;;;;;5035835;28;20207;-74
2023/03/19 08:07:55;;;;;;;22.23;19.35;;;11.10;99.90;;;;;;5035252;28;20223;-77
2023/03/19 08:10:23;;;;;;;21.35;19.08;;;11.40;99.90;;;;;;5035387;28;20261;-75
2023/03/19 08:12:50;;;;;;;24.17;21.08;;;11.70;99.90;;;;;;5038150;28;20235;-75
2023/03/19 08:15:17;;;;;;;24.50;20.80;;;11.90;99.90;;;;;;5039065;28;20199;-75
2023/03/19 08:17:44;;;;;;;24.52;21.05;;;12.10;99.90;;;;;;5045364;28;20254;-76
2023/03/19 08:20:15;;;;;;;22.15;18.92;;;12.20;99.90;;;;;;5038180;28;20577;-75
2023/03/19 08:22:42;;;;;;;21.60;19.30;;;12.40;99.90;;;;;;5038250;28;20578;-77
2023/03/19 08:25:10;;;;;;;22.52;20.10;;;12.50;99.90;;;;;;5033098;28;20199;-75
2023/03/19 08:27:39;;;;;;;22.48;20.10;;;12.80;99.90;;;;;;5034674;28;20250;-77
2023/03/19 08:30:08;;;;;;;19.67;17.63;;;12.80;99.90;;;;;;5038041;28;20696;-77
2023/03/19 08:32:36;;;;;;;22.90;20.58;;;12.90;99.90;;;;;;5040836;28;20230;-76
2023/03/19 08:35:03;;;;;;;22.42;20.15;;;13.10;99.90;;;;;;5041155;28;20239;-74
2023/03/19 08:37:30;;;;;;;23.25;20.45;;;13.20;99.90;;;;;;5034693;28;20266;-74
2023/03/19 08:39:57;;;;;;;21.73;19.40;;;13.40;99.90;;;;;;5038921;28;20262;-75
2023/03/19 08:42:24;;;;;;;21.65;19.38;;;13.50;99.90;;;;;;5037934;28;20253;-74
2023/03/19 08:44:52;;;;;;;22.08;19.33;;;13.60;99.90;;;;;;5039999;28;20230;-75
2023/03/19 08:47:23;;;;;;;22.23;19.92;;;13.50;99.90;;;;;;5036604;28;20259;-75
2023/03/19 08:49:50;;;;;;;21.17;18.65;;;13.60;99.90;;;;;;5041649;28;20225;-75
2023/03/19 08:52:16;;;;;;;20.77;18.63;;;13.70;99.90;;;;;;5041561;28;20562;-77
2023/03/19 08:54:43;;;;;;;22.42;19.35;;;13.80;99.90;;;;;;5044223;28;20250;-76
2023/03/19 08:57:10;;;;;;;23.42;20.90;;;13.80;99.90;;;;;;5043050;28;20692;-74
2023/03/19 08:59:37;;;;;;;23.98;20.58;;;13.90;99.90;;;;;;5045180;28;20272;-76
2023/03/19 09:02:06;;;;;;;22.95;20.55;;;13.90;99.90;;;;;;5042836;28;20257;-76
2023/03/19 09:04:37;;;;;;;22.80;20.33;;;13.90;99.90;;;;;;5040065;28;20214;-76
2023/03/19 09:07:04;;;;;;;22.02;19.63;;;14.20;99.90;;;;;;5053828;28;20206;-78
2023/03/19 09:09:31;;;;;;;21.05;18.85;;;14.40;99.90;;;;;;5043305;28;20633;-74
2023/03/19 09:11:58;;;;;;;21.33;19.00;;;14.80;99.90;;;;;;5036555;28;20230;-75
2023/03/19 09:14:26;;;;;;;22.30;19.33;;;15.10;99.90;;;;;;5037427;28;20249;-77
2023/03/19 09:16:54;;;;;;;20.45;18.00;;;15.20;99.90;;;;;;5038138;28;20214;-74
2023/03/19 09:19:22;;;;;;;20.83;18.63;;;15.30;99.90;;;;;;5041121;28;20199;-74
2023/03/19 09:21:49;;;;;;;21.85;18.95;;;15.40;99.90;;;;;;5041825;28;20207;-75
2023/03/19 09:24:17;;;;;;;20.98;18.23;;;15.40;99.90;;;;;;5042661;28;20190;-76
2023/03/19 09:26:44;;;;;;;20.98;17.98;;;15.80;99.90;;;;;;5044090;28;20203;-75
2023/03/19 09:29:11;;;;;;;23.08;19.48;;;16.20;99.90;;;;;;5037881;28;20700;-75
2023/03/19 09:31:39;;;;;;;21.80;19.50;;;16.60;99.90;;;;;;5037097;28;20846;-75
2023/03/19 09:34:07;;;;;;;21.50;19.20;;;16.80;99.90;;;;;;5042156;28;20214;-75
2023/03/19 09:36:36;;;;;;;21.23;18.92;;;16.70;99.90;;;;;;5042601;28;20645;-75
2023/03/19 09:39:04;;;;;;;20.10;18.00;;;16.60;99.90;;;;;;5040133;28;20223;-75
2023/03/19 09:41:40;;;;;;;21.00;18.63;;;16.60;99.90;;;;;;5041699;28;20256;-75
2023/03/19 09:44:12;;;;;;;19.77;17.65;;;16.70;99.90;;;;;;5037256;28;20198;-75
2023/03/19 09:46:45;;;;;;;21.23;18.92;;;16.60;99.90;;;;;;5042156;28;20231;-75
2023/03/19 09:49:17;;;;;;;20.75;18.33;;;16.90;99.90;;;;;;5036276;28;20218;-75
2023/03/19 09:51:50;;;;;;;21.15;18.67;;;16.80;99.90;;;;;;5039491;28;20256;-75
2023/03/19 09:54:32;;;;;;;19.75;17.65;;;16.80;99.90;;;;;;5037093;28;20247;-77
2023/03/19 09:56:59;;;;;;;19.85;17.75;;;16.80;99.90;;;;;;5029847;28;20829;-75
2023/03/19 09:59:28;;;;;;;21.65;19.23;;;16.80;99.90;;;;;;5036255;28;20198;-75
2023/03/19 10:02:09;;;;;;;21.92;19.42;;;17.00;99.90;;;;;;5034578;28;20207;-74
2023/03/19 10:04:44;;;;;;;21.33;17.80;;;16.90;99.90;;;;;;5037635;28;20194;-76
2023/03/19 10:07:29;;;;;;;23.33;18.80;;;16.90;99.90;;;;;;5035046;28;20273;-74
2023/03/19 10:10:12;;;;;;;20.92;18.13;;;16.90;99.90;;;;;;5032633;28;20880;-74
2023/03/19 10:12:48;;;;;;;24.05;20.48;;;17.00;99.90;;;;;;5037334;28;20297;-74
2023/03/19 10:15:19;;;;;;;21.15;18.92;;;17.30;99.90;;;;;;5033254;28;20250;-74
2023/03/19 10:17:54;;;;;;;22.75;20.35;;;17.40;99.90;;;;;;5037100;28;20226;-74
2023/03/19 10:20:31;;;;;;;27.85;20.40;;;17.40;99.90;;;;;;5033407;28;20309;-74
2023/03/19 10:23:10;;;;;;;22.85;19.83;;;17.10;99.90;;;;;;5037359;28;20210;-76
2023/03/19 10:25:39;;;;;;;22.63;20.20;;;17.00;99.90;;;;;;5034540;28;20293;-75
2023/03/19 10:28:15;;;;;;;21.88;19.48;;;16.90;99.90;;;;;;5033671;28;20778;-77
2023/03/19 10:30:43;;;;;;;21.92;19.63;;;16.80;99.90;;;;;;5028238;28;20299;-74
2023/03/19 10:33:21;;;;;;;22.02;19.60;;;16.80;99.90;;;;;;5027815;28;20859;-75
2023/03/19 10:35:56;;;;;;;25.27;20.77;;;16.70;99.90;;;;;;5026506;28;20302;-73
2023/03/19 10:38:26;;;;;;;22.48;20.08;;;16.60;99.90;;;;;;5032134;28;20222;-74
2023/03/19 10:41:11;;;;;;;23.23;20.83;;;16.40;99.90;;;;;;5033882;28;20430;-76
2023/03/19 10:43:41;;;;;;;24.25;21.17;;;16.30;99.90;;;;;;5035656;28;20253;-74
2023/03/19 10:46:13;;;;;;;23.23;20.73;;;16.10;99.90;;;;;;5035885;28;20234;-75
2023/03/19 10:48:44;;;;;;;22.90;20.50;;;16.20;99.90;;;;;;5037198;28;20306;-75
2023/03/19 10:51:15;;;;;;;23.17;20.70;;;16.20;99.90;;;;;;5033900;28;20199;-73
2023/03/19 10:53:43;;;;;;;23.50;20.95;;;16.20;99.90;;;;;;5037076;28;20194;-74
2023/03/19 10:56:19;;;;;;;23.63;21.02;;;16.20;99.90;;;;;;5035512;28;20311;-72
2023/03/19 10:58:57;;;;;;;24.60;21.60;;;16.30;99.90;;;;;;5034290;28;20234;-75
2023/03/19 11:01:31;;;;;;;26.02;23.27;;;16.20;99.90;;;;;;5034149;28;20276;-77
2023/03/19 11:04:00;;;;;;;26.90;23.95;;;15.90;99.90;;;;;;5036976;28;20290;-73
2023/03/19 11:06:31;;;;;;;26.63;23.23;;;15.70;99.90;;;;;;5037465;28;20232;-74
2023/03/19 11:09:03;;;;;;;23.75;21.20;;;15.70;99.90;;;;;;5035195;28;20227;-75
2023/03/19 11:11:34;;;;;;;25.17;22.48;;;15.80;99.90;;;;;;5039860;28;20207;-73
2023/03/19 11:14:15;;;;;;;22.08;19.77;;;15.70;99.90;;;;;;5038838;28;20231;-75
2023/03/19 11:16:56;;;;;;;27.67;21.80;;;16.00;99.90;;;;;;5034343;28;20218;-75
2023/03/19 11:19:25;;;;;;;22.85;20.40;;;15.90;99.90;;;;;;5035783;28;20286;-74
2023/03/19 11:22:02;;;;;;;24.27;21.77;;;15.90;99.90;;;;;;5037628;28;20223;-74
2023/03/19 11:24:33;;;;;;;21.65;19.35;;;15.90;99.90;;;;;;5036574;28;20199;-72
2023/03/19 11:27:02;;;;;;;22.85;20.45;;;16.00;99.90;;;;;;5036872;28;20743;-74
2023/03/19 11:29:29;;;;;;;23.90;20.23;;;16.20;99.90;;;;;;5037023;28;20211;-74
2023/03/19 11:32:05;;;;;;;22.50;20.08;;;16.30;99.90;;;;;;5038814;28;20268;-72
2023/03/19 11:34:41;;;;;;;22.45;20.15;;;16.60;99.90;;;;;;5033685;28;20241;-76
2023/03/19 11:37:15;;;;;;;21.73;19.30;;;16.70;99.90;;;;;;5034498;28;20207;-75
2023/03/19 11:39:53;;;;;;;23.58;21.10;;;16.70;99.90;;;;;;5035933;28;20335;-75
2023/03/19 11:42:38;;;;;;;23.23;20.10;;;16.70;99.90;;;;;;5033222;28;20281;-73
2023/03/19 11:45:17;;;;;;;24.92;22.10;;;16.70;99.90;;;;;;5032807;28;20674;-75
2023/03/19 11:47:51;;;;;;;24.60;21.92;;;16.70;99.90;;;;;;5035543;28;20349;-74
2023/03/19 11:50:26;;;;;;;24.02;21.42;;;16.50;99.90;;;;;;5031923;28;20209;-73
2023/03/19 11:53:01;;;;;;;25.05;21.35;;;16.40;99.90;;;;;;5038271;28;22209;-74
2023/03/19 11:55:36;;;;;;;22.17;19.83;;;16.30;99.90;;;;;;5042818;28;20219;-74
2023/03/19 11:58:41;;;;;;;21.73;19.30;;;16.00;99.90;;;;;;5030606;28;20238;-77
2023/03/19 12:01:18;;;;;;;19.80;17.70;;;16.10;99.90;;;;;;5031861;28;20498;-72
2023/03/19 12:04:16;;;;;;;21.92;19.63;;;16.40;99.90;;;;;;5031930;28;20256;-74
2023/03/19 12:06:53;;;;;;;23.25;20.75;;;16.50;99.90;;;;;;5033459;28;20227;-74
2023/03/19 12:09:28;;;;;;;25.73;22.25;;;16.70;99.90;;;;;;5033923;28;20313;-70
2023/03/19 12:12:07;;;;;;;23.25;20.77;;;16.70;99.90;;;;;;5036755;28;20225;-73
2023/03/19 12:14:48;;;;;;;20.88;18.77;;;16.90;99.90;;;;;;5035091;28;20243;-74
2023/03/19 12:17:32;;;;;;;20.35;18.20;;;17.60;99.90;;;;;;5038212;28;20222;-75
2023/03/19 12:20:26;;;;;;;23.48;20.50;;;18.10;99.90;;;;;;5033338;28;20709;-76
2023/03/19 12:23:05;;;;;;;28.17;23.02;;;18.10;99.90;;;;;;5038275;28;20222;-75
2023/03/19 12:25:52;;;;;;;27.42;23.58;;;17.60;99.90;;;;;;5034180;28;20227;-73
2023/03/19 12:28:25;;;;;;;25.90;23.05;;;17.50;99.90;;;;;;5035055;28;20214;-74
2023/03/19 12:31:09;;;;;;;25.00;22.35;;;17.50;99.90;;;;;;5031782;28;20297;-75
2023/03/19 12:33:46;;;;;;;23.50;21.00;;;17.50;99.90;;;;;;5032693;28;20331;-74
2023/03/19 12:36:22;;;;;;;21.88;19.40;;;17.30;99.90;;;;;;5032245;28;20246;-74
2023/03/19 12:38:53;;;;;;;21.60;19.30;;;17.40;99.90;;;;;;5031653;28;20251;-74
2023/03/19 12:41:24;;;;;;;18.45;16.25;;;17.90;99.90;;;;;;5036825;28;20287;-75
2023/03/19 12:43:58;;;;;;;16.23;14.52;;;18.30;99.90;;;;;;5032896;28;20722;-74
2023/03/19 12:46:31;;;;;;;17.95;13.93;;;18.20;99.30;;;;;;5031100;28;20281;-75
2023/03/19 12:49:03;;;;;;;13.27;11.85;;;18.30;98.10;;;;;;5032939;28;20223;-75
2023/03/19 12:51:35;;;;;;;14.43;12.93;;;18.40;98.80;;;;;;5029670;28;20296;-76